Key West International Airport
KEYW : rendu visible

Aérodrome :











RETROUVEZ-NOUS SUR...

 
LOGIN :

S'inscrire | Disclaimer

   EN    FR    IT 

 









Légende :    VFR   VFR Marginal   IFR   IFR Intensif   IFR Très Intensif
Visi : 
Plafond : 
>= 8 km
>= 3000ft
5 à 8 km
1000 à 3000 ft
1500m à 5 km
500 à 1000 ft
800 à 1500m
200 à 500 ft
< 800m
< 200 ft
Symboles :   Orages  Brouillard  Fortes neiges  Fortes précipitations  Vent > 20 kt






- Altitude de l'aérodrome : 3 ft
- Code IATA : EYW


KEYW - Key West International

DERNIER METAR :
  • 210253Z AUTO 36013KT 10SM CLR 20/12 A3014 RMK AO2 SLP205 T02000122 51008

METARs EXPIRÉS :
  • 210153Z 35013G22KT 10SM CLR 21/13 A3013 RMK AO2 SLP203 T02060133
  • 210053Z 35013KT 10SM CLR 20/12 A3013 RMK AO2 SLP203 T02000122

TAF KEYW
Valide du 21 à 00h jusqu'au 22 à 00h UTC


202340Z 2100/2124 35015G23KT P6SM FEW080 SCT200
FM211000 36015G23KT P6SM SCT030
FM211400 34014G20KT P6SM SCT020 BKN030
FM211800 35018G25KT P6SM SCT040
FM212200 34020G28KT P6SM SKC



MET'MAP, la Météo Aéronautique d'un coup d'oeil ! - Copyright ORBIFLY Décembre 2007 - Disclaimer

ORBIFLY MET'MAP TEAM :

Programmation & Développement : Alexandra Zaïnal
Sur une idée originale de : Baudouin d'Aumeries
Assistance à la programmation : Marc-Olivier Méhu
Soutien technique & logistique : Manuel Goepfert

Contact : metmap@orbifly.com




SOURCES & CREDITS :

   NOAA       Earth
Advisory